Time;durP1;ratioP1;P1;durP2;ratioP2;P2;SDS_P1;SDS_P2;PMS_P1;PMS_P2;Temp;Humidity;BMP_temperature;BMP_pressure;BME280_temperature;BME280_humidity;BME280_pressure;Samples;Min_cycle;Max_cycle;Signal;HPM_P1;HPM_P2
2022/03/23 00:00:16;;;;;;;43.33;17.75;;;;;;;2.83;48.68;100620.37;1765473;81;20974;-81
2022/03/23 00:02:45;;;;;;;45.78;17.35;;;;;;;2.82;44.89;100615.19;1742446;80;21005;-79
2022/03/23 00:05:11;;;;;;;48.45;18.27;;;;;;;2.80;45.53;100624.13;1759741;81;21029;-81
2022/03/23 00:07:38;;;;;;;43.02;17.70;;;;;;;2.77;44.41;100620.19;1740798;80;21009;-81
2022/03/23 00:10:06;;;;;;;44.45;16.23;;;;;;;2.73;46.14;100620.50;1758973;81;21068;-82
2022/03/23 00:12:32;;;;;;;43.30;17.48;;;;;;;2.70;46.43;100620.39;1770206;80;20998;-81
2022/03/23 00:14:59;;;;;;;42.98;14.95;;;;;;;2.67;47.61;100616.89;1782671;79;21055;-81
2022/03/23 00:17:25;;;;;;;41.33;16.45;;;;;;;2.67;46.70;100619.45;1765504;81;21041;-81
2022/03/23 00:19:52;;;;;;;47.15;15.60;;;;;;;2.64;48.97;100620.20;1750748;80;21015;-81
2022/03/23 00:22:18;;;;;;;37.73;15.70;;;;;;;2.62;51.56;100614.57;1760929;81;21466;-80
2022/03/23 00:24:45;;;;;;;42.78;15.75;;;;;;;2.59;51.29;100616.22;1767283;80;21028;-81
2022/03/23 00:27:12;;;;;;;36.77;16.57;;;;;;;2.54;47.02;100617.76;1755765;81;21004;-81
2022/03/23 00:29:39;;;;;;;47.38;16.23;;;;;;;2.52;48.71;100619.83;1749355;81;20968;-83
2022/03/23 00:32:06;;;;;;;45.80;17.30;;;;;;;2.47;49.04;100608.55;1789861;80;20975;-83
2022/03/23 00:34:33;;;;;;;44.83;17.35;;;;;;;2.45;49.85;100614.92;1772102;80;20964;-83
2022/03/23 00:37:00;;;;;;;42.70;14.90;;;;;;;2.45;49.10;100614.02;1766165;78;20982;-83
2022/03/23 00:39:27;;;;;;;55.40;17.48;;;;;;;2.43;48.96;100614.00;1758477;78;20992;-83
2022/03/23 00:41:54;;;;;;;41.68;16.23;;;;;;;2.40;48.25;100612.60;1759240;78;21024;-83
2022/03/23 00:44:21;;;;;;;45.33;16.87;;;;;;;2.37;49.26;100617.23;1758124;81;20965;-82
2022/03/23 00:46:47;;;;;;;38.38;15.32;;;;;;;2.32;50.29;100617.48;1770939;80;20965;-83
2022/03/23 00:49:14;;;;;;;40.17;16.55;;;;;;;2.28;50.98;100608.36;1749028;80;21017;-83
2022/03/23 00:51:41;;;;;;;54.65;19.48;;;;;;;2.25;50.48;100608.24;1763004;78;20992;-83
2022/03/23 00:54:11;;;;;;;47.10;17.80;;;;;;;2.22;51.49;100611.59;1757957;78;20997;-84
2022/03/23 00:56:37;;;;;;;47.75;18.17;;;;;;;2.20;52.41;100605.53;1773511;77;21020;-83
2022/03/23 00:59:07;;;;;;;45.58;18.52;;;;;;;2.18;49.71;100609.75;1780457;77;21031;-84
2022/03/23 01:01:34;;;;;;;51.90;19.67;;;;;;;2.14;52.54;100613.90;1777655;79;20991;-83
2022/03/23 01:04:01;;;;;;;44.23;16.50;;;;;;;2.02;47.45;100598.10;1804692;78;21009;-83
2022/03/23 01:06:28;;;;;;;51.45;19.77;;;;;;;2.02;50.28;100607.50;1806213;78;20954;-85
2022/03/23 01:08:55;;;;;;;41.92;17.27;;;;;;;1.98;50.94;100603.53;1746747;80;21022;-83
2022/03/23 01:11:22;;;;;;;58.58;21.52;;;;;;;1.95;52.06;100602.17;1792493;78;21081;-84
2022/03/23 01:13:48;;;;;;;53.00;20.20;;;;;;;1.93;52.68;100597.78;1810813;79;20971;-83
2022/03/23 01:16:16;;;;;;;51.53;19.62;;;;;;;1.84;50.83;100600.05;1808849;79;20995;-82
2022/03/23 01:18:43;;;;;;;51.88;20.45;;;;;;;1.77;51.28;100598.95;1807943;79;21030;-82
2022/03/23 01:21:13;;;;;;;43.42;17.20;;;;;;;1.75;50.94;100596.36;1817404;78;21011;-84
2022/03/23 01:23:43;;;;;;;43.65;18.92;;;;;;;1.75;53.89;100598.92;1836954;78;20985;-82
2022/03/23 01:26:09;;;;;;;44.83;15.65;;;;;;;1.74;51.82;100590.75;1794490;79;21059;-81
2022/03/23 01:28:36;;;;;;;44.42;17.73;;;;;;;1.74;52.59;100590.75;1807338;79;20964;-81
2022/03/23 01:31:03;;;;;;;51.88;19.23;;;;;;;1.74;54.13;100597.58;1806842;79;21469;-81
2022/03/23 01:33:32;;;;;;;42.23;18.55;;;;;;;1.70;54.61;100596.59;1804793;79;21058;-81
2022/03/23 01:35:59;;;;;;;47.62;17.77;;;;;;;1.68;52.21;100594.39;1782978;79;21014;-83
2022/03/23 01:38:26;;;;;;;47.93;18.85;;;;;;;1.65;53.72;100590.45;1761912;81;21004;-83
2022/03/23 01:40:52;;;;;;;47.85;20.30;;;;;;;1.63;53.01;100590.78;1766310;81;21000;-83
2022/03/23 01:43:19;;;;;;;44.95;18.30;;;;;;;1.61;53.94;100586.01;1748963;82;21023;-83
2022/03/23 01:45:46;;;;;;;46.85;17.57;;;;;;;1.59;53.52;100587.27;1749006;82;21020;-83
2022/03/23 01:48:14;;;;;;;43.80;15.32;;;;;;;1.56;53.10;100584.58;1777809;80;21038;-81
2022/03/23 01:50:41;;;;;;;50.50;18.82;;;;;;;1.54;54.01;100583.65;1798887;79;21014;-80
2022/03/23 01:53:07;;;;;;;46.33;16.23;;;;;;;1.54;55.56;100587.50;1807648;78;20979;-81
2022/03/23 01:55:34;;;;;;;48.13;19.10;;;;;;;1.54;54.45;100587.91;1766747;81;21004;-81
2022/03/23 01:58:01;;;;;;;45.78;16.87;;;;;;;1.53;53.12;100593.84;1758824;81;21037;-81
2022/03/23 02:00:28;;;;;;;51.02;19.23;;;;;;;1.49;54.39;100595.45;1753372;82;21519;-81
2022/03/23 02:02:55;;;;;;;43.92;16.82;;;;;;;1.48;54.69;100592.41;1740416;82;21048;-80
2022/03/23 02:05:21;;;;;;;48.73;19.02;;;;;;;1.44;55.88;100597.38;1730033;81;21013;-81
2022/03/23 02:07:52;;;;;;;46.55;18.10;;;;;;;1.41;54.70;100595.55;1740930;80;21049;-80
2022/03/23 02:10:19;;;;;;;46.55;17.98;;;;;;;1.40;56.13;100595.11;1718416;81;21109;-83
2022/03/23 02:12:48;;;;;;;51.30;18.70;;;;;;;1.36;55.72;100597.97;1719933;81;20946;-82
2022/03/23 02:15:17;;;;;;;43.08;16.93;;;;;;;1.35;55.48;100595.34;1750395;81;21613;-83
2022/03/23 02:17:46;;;;;;;45.92;17.30;;;;;;;1.32;56.11;100593.55;1752396;81;20984;-81
2022/03/23 02:20:14;;;;;;;50.17;16.45;;;;;;;1.29;55.65;100597.69;1753648;81;21016;-80
2022/03/23 02:22:41;;;;;;;50.78;18.35;;;;;;;1.25;54.88;100601.81;1744368;81;21045;-79
2022/03/23 02:25:08;;;;;;;40.95;15.48;;;;;;;1.22;53.94;100606.84;1735926;82;21015;-79
2022/03/23 02:27:38;;;;;;;47.85;19.02;;;;;;;1.19;56.48;100618.25;1731639;82;20981;-79
2022/03/23 02:30:10;;;;;;;47.53;18.42;;;;;;;1.15;56.17;100607.03;1748742;81;22163;-80
2022/03/23 02:32:37;;;;;;;59.38;23.05;;;;;;;1.14;57.97;100610.81;1730587;81;21064;-79
2022/03/23 02:35:07;;;;;;;69.35;22.62;;;;;;;1.13;57.47;100612.89;1729489;81;21009;-80
2022/03/23 02:37:35;;;;;;;77.32;19.50;;;;;;;1.11;57.51;100606.43;1745721;82;21025;-80
2022/03/23 02:40:03;;;;;;;65.95;19.70;;;;;;;1.07;56.02;100607.55;1743056;82;21097;-81
2022/03/23 02:42:29;;;;;;;46.77;15.23;;;;;;;1.01;57.72;100610.75;1742785;82;21424;-83
2022/03/23 02:44:56;;;;;;;76.22;17.65;;;;;;;0.98;58.01;100610.23;1742894;81;20981;-82
2022/03/23 02:47:23;;;;;;;70.65;17.12;;;;;;;0.96;56.17;100611.00;1756585;81;21017;-82
2022/03/23 02:49:49;;;;;;;60.88;18.70;;;;;;;0.92;57.62;100604.02;1749125;81;20954;-81
2022/03/23 02:52:16;;;;;;;59.38;17.07;;;;;;;0.86;57.25;100608.49;1763098;80;20985;-81
2022/03/23 03:03:26;;;;;;;78.40;27.30;;;;;;;0.70;57.88;100620.24;1735274;81;21010;-79
2022/03/23 03:05:53;;;;;;;72.65;23.42;;;;;;;0.67;57.43;100616.27;1766522;80;21011;-81
2022/03/23 03:11:05;;;;;;;62.38;20.72;;;;;;;0.65;57.84;100623.87;1735185;82;21532;-80
2022/03/23 03:13:31;;;;;;;57.65;17.98;;;;;;;0.64;57.94;100628.55;1725006;82;20993;-80
2022/03/23 03:16:03;;;;;;;60.70;19.55;;;;;;;0.62;58.30;100628.00;1739802;81;21053;-81
2022/03/23 03:18:32;;;;;;;50.10;16.20;;;;;;;0.62;58.30;100623.78;1725391;83;21052;-81
2022/03/23 03:21:00;;;;;;;61.30;19.90;;;;;;;0.61;59.12;100622.02;1737862;82;20964;-79
2022/03/23 03:23:30;;;;;;;45.38;14.70;;;;;;;0.61;58.85;100624.58;1741807;81;21020;-81
2022/03/23 03:25:57;;;;;;;46.05;15.23;;;;;;;0.61;57.56;100621.15;1747874;81;21045;-79
2022/03/23 03:28:23;;;;;;;40.52;13.70;;;;;;;0.60;59.70;100617.72;1751847;81;20973;-79
2022/03/23 03:30:50;;;;;;;39.98;14.25;;;;;;;0.60;58.16;100621.56;1732568;81;20982;-81
2022/03/23 03:33:16;;;;;;;34.05;13.98;;;;;;;0.59;57.76;100627.06;1730149;82;21049;-81
2022/03/23 03:35:43;;;;;;;36.93;15.23;;;;;;;0.59;58.38;100629.63;1724196;82;21065;-81
2022/03/23 03:38:10;;;;;;;46.00;16.27;;;;;;;0.59;59.88;100628.76;1733117;82;20973;-81
2022/03/23 03:40:37;;;;;;;45.05;16.77;;;;;;;0.56;58.11;100623.13;1769193;81;21507;-78
2022/03/23 03:43:05;;;;;;;46.25;16.57;;;;;;;0.57;58.33;100632.94;1745580;80;20962;-81
2022/03/23 03:45:31;;;;;;;48.70;17.07;;;;;;;0.55;57.95;100634.16;1738785;81;21029;-79
2022/03/23 03:47:58;;;;;;;54.58;18.73;;;;;;;0.53;58.13;100634.50;1720104;82;21010;-79
2022/03/23 03:50:25;;;;;;;40.67;15.85;;;;;;;0.53;57.65;100633.64;1752835;81;21013;-80
2022/03/23 03:52:51;;;;;;;43.90;15.25;;;;;;;0.48;58.68;100630.91;1748958;82;21015;-81
2022/03/23 03:55:18;;;;;;;45.40;16.82;;;;;;;0.43;58.49;100632.80;1753146;82;21017;-81
2022/03/23 03:57:45;;;;;;;47.83;16.75;;;;;;;0.41;58.85;100636.57;1745799;81;21097;-79
2022/03/23 04:00:13;;;;;;;45.45;16.65;;;;;;;0.41;59.59;100628.89;1747982;82;20996;-81
2022/03/23 04:02:40;;;;;;;40.12;15.78;;;;;;;0.40;59.40;100633.56;1745986;81;21008;-83
2022/03/23 04:05:07;;;;;;;51.03;18.07;;;;;;;0.38;58.93;100628.79;1756472;81;21033;-82
2022/03/23 04:07:34;;;;;;;44.05;16.32;;;;;;;0.36;60.89;100631.70;1733182;82;21017;-82
2022/03/23 04:10:03;;;;;;;40.85;16.67;;;;;;;0.35;57.13;100643.59;1739581;81;21470;-82
2022/03/23 04:12:30;;;;;;;44.73;14.18;;;;;;;0.34;59.64;100642.27;1750731;82;21478;-80
2022/03/23 04:14:57;;;;;;;42.98;15.03;;;;;;;0.29;58.11;100646.31;1748341;81;20987;-79
2022/03/23 04:17:23;;;;;;;46.45;14.93;;;;;;;0.25;56.86;100644.03;1731990;81;20977;-79
2022/03/23 04:19:50;;;;;;;46.73;15.80;;;;;;;0.18;60.16;100642.05;1754214;81;21000;-80
2022/03/23 04:22:17;;;;;;;42.98;13.93;;;;;;;0.13;58.00;100646.08;1753645;81;21001;-80
2022/03/23 04:24:43;;;;;;;44.65;15.53;;;;;;;0.06;61.54;100646.23;1746003;82;21080;-79
2022/03/23 04:27:10;;;;;;;44.53;15.65;;;;;;;0.00;59.65;100648.55;1745206;81;21012;-79
2022/03/23 04:29:36;;;;;;;44.13;15.13;;;;;;;-0.01;59.12;100644.22;1743854;82;21053;-80
2022/03/23 04:32:04;;;;;;;52.55;16.70;;;;;;;-0.03;60.40;100644.56;1724547;83;21029;-80
2022/03/23 04:34:30;;;;;;;55.43;15.23;;;;;;;-0.01;63.09;100646.36;1748315;81;20962;-80
2022/03/23 04:36:57;;;;;;;54.98;17.60;;;;;;;-0.15;61.19;100624.88;1739469;81;20973;-80
2022/03/23 04:39:23;;;;;;;41.35;16.30;;;;;;;-0.01;62.78;100654.45;1732908;81;21053;-79
2022/03/23 04:41:50;;;;;;;69.22;20.08;;;;;;;0.01;61.43;100655.39;1734234;82;20985;-79
2022/03/23 04:44:16;;;;;;;62.48;20.60;;;;;;;0.00;59.23;100651.09;1728558;81;21032;-79
2022/03/23 04:46:44;;;;;;;88.27;23.83;;;;;;;-0.12;58.38;100642.88;1734311;81;20998;-80
2022/03/23 04:49:10;;;;;;;82.00;22.90;;;;;;;-0.05;60.36;100651.30;1742472;82;20988;-80
2022/03/23 04:51:37;;;;;;;70.35;21.73;;;;;;;-0.06;57.12;100661.03;1731246;81;21021;-80
2022/03/23 04:54:04;;;;;;;63.42;20.75;;;;;;;-0.06;60.61;100650.81;1744175;81;21013;-81
2022/03/23 04:56:31;;;;;;;52.88;18.37;;;;;;;-0.05;58.99;100655.13;1727786;82;21056;-78
2022/03/23 04:58:59;;;;;;;61.08;19.67;;;;;;;-0.03;59.52;100657.34;1744151;81;20986;-80
2022/03/23 05:01:26;;;;;;;49.88;19.12;;;;;;;0.02;61.76;100654.59;1746870;81;21049;-81
2022/03/23 05:03:52;;;;;;;55.55;20.65;;;;;;;0.05;59.64;100654.70;1752518;82;21055;-80
2022/03/23 05:06:19;;;;;;;52.33;17.87;;;;;;;0.08;60.38;100654.85;1750083;82;21045;-80
2022/03/23 05:08:46;;;;;;;56.83;19.67;;;;;;;0.15;60.63;100658.11;1752353;81;20989;-80
2022/03/23 05:11:13;;;;;;;58.98;17.67;;;;;;;0.22;60.44;100660.92;1751688;81;21017;-80
2022/03/23 05:13:40;;;;;;;50.60;19.80;;;;;;;0.27;62.06;100664.15;1754447;81;21008;-79
2022/03/23 05:16:07;;;;;;;64.45;20.02;;;;;;;0.33;60.33;100666.09;1725752;83;21097;-81
2022/03/23 05:18:34;;;;;;;81.12;19.92;;;;;;;0.38;61.79;100669.73;1745220;81;20997;-80
2022/03/23 05:21:01;;;;;;;46.85;15.68;;;;;;;0.46;60.36;100673.85;1770987;81;21017;-81
2022/03/23 05:23:27;;;;;;;71.28;19.40;;;;;;;0.50;62.29;100670.64;1750128;77;20999;-81
2022/03/23 05:25:54;;;;;;;59.73;17.23;;;;;;;0.52;62.59;100669.88;1757143;77;22086;-81
2022/03/23 05:28:21;;;;;;;63.40;20.70;;;;;;;0.55;61.34;100667.42;1738491;78;21012;-82
2022/03/23 05:30:47;;;;;;;81.32;19.62;;;;;;;0.58;61.28;100667.98;1771364;81;21011;-81
2022/03/23 05:33:14;;;;;;;86.55;28.87;;;;;;;0.61;61.84;100671.06;1749005;81;21049;-81
2022/03/23 05:35:41;;;;;;;105.37;38.20;;;;;;;0.64;60.80;100673.72;1728081;82;20981;-80
2022/03/23 05:38:07;;;;;;;107.65;40.90;;;;;;;0.66;61.16;100673.00;1745333;81;21047;-81
2022/03/23 05:40:34;;;;;;;90.47;31.73;;;;;;;0.69;61.13;100674.37;1750945;82;20985;-79
2022/03/23 05:43:01;;;;;;;97.10;31.35;;;;;;;0.74;62.20;100675.45;1723616;81;21032;-81
2022/03/23 05:45:28;;;;;;;95.25;28.87;;;;;;;0.81;61.51;100672.72;1735282;82;21525;-81
2022/03/23 05:47:56;;;;;;;81.17;29.67;;;;;;;0.87;61.08;100674.23;1743537;81;21028;-80
2022/03/23 05:50:23;;;;;;;78.57;23.35;;;;;;;0.92;60.52;100677.00;1738048;81;21024;-81
2022/03/23 05:52:50;;;;;;;86.80;26.52;;;;;;;0.97;58.21;100681.88;1749989;81;21025;-80
2022/03/23 05:55:16;;;;;;;59.33;24.90;;;;;;;1.03;60.09;100679.97;1746322;82;21329;-81
2022/03/23 05:57:43;;;;;;;81.97;30.05;;;;;;;1.09;60.03;100678.50;1751265;82;20999;-80
2022/03/23 06:00:10;;;;;;;82.40;28.02;;;;;;;1.17;57.71;100682.64;1760685;81;20963;-81
2022/03/23 06:02:43;;;;;;;77.95;28.67;;;;;;;1.26;58.62;100685.98;1766482;81;21002;-79
2022/03/23 06:05:10;;;;;;;67.15;25.52;;;;;;;1.35;59.03;100680.80;1728833;81;20988;-81
2022/03/23 06:07:37;;;;;;;71.50;26.42;;;;;;;1.45;57.15;100676.00;1734082;82;20952;-83
2022/03/23 06:10:07;;;;;;;76.42;26.27;;;;;;;1.54;58.55;100675.06;1742673;80;21009;-83
2022/03/23 06:12:33;;;;;;;59.60;22.90;;;;;;;1.65;59.05;100677.63;1769272;81;21140;-84
2022/03/23 06:15:00;;;;;;;73.45;27.98;;;;;;;1.74;56.15;100668.95;1734166;81;21052;-84
2022/03/23 06:17:27;;;;;;;91.55;27.22;;;;;;;1.84;58.18;100665.03;1727068;83;21037;-83
2022/03/23 06:19:53;;;;;;;68.25;24.85;;;;;;;1.95;56.94;100677.84;1727278;83;21090;-83
2022/03/23 06:22:20;;;;;;;75.78;25.17;;;;;;;2.08;57.12;100666.30;1727285;83;21021;-83
2022/03/23 06:24:47;;;;;;;63.63;21.65;;;;;;;2.17;55.46;100670.47;1735482;82;21123;-82
2022/03/23 06:27:14;;;;;;;62.40;23.98;;;;;;;2.26;57.00;100680.58;1771153;81;20984;-83
2022/03/23 06:29:41;;;;;;;72.90;28.32;;;;;;;2.39;56.79;100666.06;1769306;80;21001;-84
2022/03/23 06:32:09;;;;;;;102.65;30.20;;;;;;;2.49;55.33;100670.67;1727220;83;21652;-83
2022/03/23 06:34:35;;;;;;;57.00;25.40;;;;;;;2.59;56.97;100670.56;1727110;83;21056;-83
2022/03/23 06:37:04;;;;;;;54.93;20.80;;;;;;;2.70;57.02;100665.76;1726402;83;21868;-83
2022/03/23 06:39:32;;;;;;;121.92;27.10;;;;;;;2.81;57.51;100664.83;1752622;81;21016;-84
2022/03/23 06:41:59;;;;;;;55.28;22.02;;;;;;;2.90;55.39;100662.11;1747760;81;21525;-83
2022/03/23 06:44:26;;;;;;;83.40;22.52;;;;;;;3.02;56.13;100668.46;1738885;81;21060;-82
2022/03/23 06:46:53;;;;;;;60.50;20.50;;;;;;;3.12;56.79;100659.81;1740834;81;21021;-83
2022/03/23 06:49:20;;;;;;;72.78;29.23;;;;;;;3.23;55.84;100660.54;1752298;82;21048;-84
2022/03/23 06:51:47;;;;;;;182.75;46.20;;;;;;;3.32;55.89;100666.83;1736579;82;20962;-83
2022/03/23 06:54:13;;;;;;;77.97;28.67;;;;;;;3.43;56.18;100661.98;1747510;82;21097;-82
2022/03/23 06:56:40;;;;;;;51.92;21.95;;;;;;;3.54;55.73;100664.84;1756507;81;21037;-84
2022/03/23 06:59:06;;;;;;;61.08;23.25;;;;;;;3.64;54.53;100655.30;1744432;80;20980;-83
2022/03/23 07:01:33;;;;;;;48.52;20.10;;;;;;;3.75;54.46;100662.89;1761709;80;21025;-81
2022/03/23 07:04:00;;;;;;;63.65;20.57;;;;;;;3.87;53.93;100661.48;1757618;81;21016;-82
2022/03/23 07:06:26;;;;;;;91.35;30.35;;;;;;;3.98;53.98;100663.95;1752206;81;21024;-83
2022/03/23 07:11:38;;;;;;;66.65;24.67;;;;;;;4.23;53.71;100659.00;1755956;80;21041;-85
2022/03/23 07:14:05;;;;;;;52.13;21.77;;;;;;;4.38;53.67;100664.98;1757957;80;21137;-84
2022/03/23 07:16:31;;;;;;;53.60;21.60;;;;;;;4.52;53.00;100652.44;1763138;80;21008;-84
2022/03/23 07:18:58;;;;;;;56.15;20.00;;;;;;;4.66;52.18;100652.35;1756307;80;21366;-88
2022/03/23 07:21:25;;;;;;;43.75;15.53;;;;;;;4.79;51.80;100653.50;1726330;81;21517;-84
2022/03/23 07:23:51;;;;;;;84.77;20.50;;;;;;;4.93;51.19;100652.52;1754732;80;20995;-82
2022/03/23 07:26:19;;;;;;;41.77;16.70;;;;;;;5.05;51.00;100651.94;1759544;80;21095;-88
2022/03/23 07:28:45;;;;;;;38.95;16.12;;;;;;;5.17;50.74;100650.91;1776315;77;20975;-86
2022/03/23 07:31:13;;;;;;;34.90;14.98;;;;;;;5.30;49.09;100651.63;1761706;77;20995;-83
2022/03/23 07:33:39;;;;;;;28.17;11.80;;;;;;;5.45;48.74;100650.20;1767940;80;21003;-83
2022/03/23 07:36:06;;;;;;;42.43;14.87;;;;;;;5.59;48.09;100646.22;1761435;80;21532;-83
2022/03/23 07:38:33;;;;;;;54.20;25.10;;;;;;;5.70;48.59;100645.98;1758939;81;20993;-84
2022/03/23 07:41:00;;;;;;;39.70;16.67;;;;;;;5.84;48.76;100647.55;1749164;81;21059;-81
2022/03/23 07:43:28;;;;;;;52.65;16.60;;;;;;;5.97;48.60;100643.11;1762402;80;21004;-84
2022/03/23 07:45:55;;;;;;;37.08;16.00;;;;;;;6.13;48.07;100641.67;1757011;80;21023;-82
2022/03/23 07:48:23;;;;;;;42.78;16.75;;;;;;;6.28;47.81;100635.89;1764292;80;20976;-82
2022/03/23 07:50:51;;;;;;;40.45;15.68;;;;;;;6.41;47.06;100637.41;1754591;78;21020;-81
2022/03/23 07:53:19;;;;;;;43.15;19.12;;;;;;;6.55;47.31;100638.06;1749368;79;20984;-84
2022/03/23 07:55:46;;;;;;;36.50;18.62;;;;;;;6.69;47.41;100636.13;1764996;80;21021;-82
2022/03/23 07:58:13;;;;;;;38.78;14.47;;;;;;;6.82;46.99;100635.88;1764653;80;21072;-81
2022/03/23 08:00:41;;;;;;;38.65;16.32;;;;;;;6.99;47.13;100625.80;1731981;81;21044;-81
2022/03/23 08:03:09;;;;;;;33.53;14.78;;;;;;;7.14;45.40;100625.98;1737413;81;20998;-82
2022/03/23 08:05:38;;;;;;;42.40;15.15;;;;;;;7.29;46.03;100630.50;1733730;81;20934;-82
2022/03/23 08:08:07;;;;;;;34.10;14.53;;;;;;;7.41;45.96;100619.01;1734082;81;21089;-89
2022/03/23 08:10:35;;;;;;;35.95;15.72;;;;;;;7.53;45.44;100619.58;1729673;82;21002;-84
2022/03/23 08:13:03;;;;;;;32.28;14.05;;;;;;;7.64;45.15;100613.22;1753724;81;21038;-85
2022/03/23 08:15:30;;;;;;;29.80;13.58;;;;;;;7.77;43.60;100619.84;1779101;78;21588;-85
2022/03/23 08:17:57;;;;;;;41.90;16.37;;;;;;;7.92;45.09;100617.00;1768616;78;21015;-91
2022/03/23 08:20:33;;;;;;;35.65;12.95;;;;;;;8.07;44.80;100619.71;1738848;79;21095;-90
2022/03/23 08:23:03;;;;;;;31.33;13.00;;;;;;;8.21;44.13;100617.25;1745593;78;21564;-88
2022/03/23 08:25:30;;;;;;;31.85;15.68;;;;;;;8.35;44.47;100609.59;1719478;82;21111;-83
2022/03/23 08:27:58;;;;;;;32.95;14.53;;;;;;;8.53;43.67;100605.91;1732675;81;21034;-85
2022/03/23 08:30:26;;;;;;;35.92;14.25;;;;;;;8.68;43.48;100598.66;1799847;78;21070;-85
2022/03/23 08:32:54;;;;;;;34.55;14.50;;;;;;;8.85;42.75;100593.55;1771556;77;21093;-92
2022/03/23 08:35:21;;;;;;;41.20;16.25;;;;;;;9.00;42.10;100597.12;1703698;79;21976;-91
2022/03/23 08:37:48;;;;;;;34.58;13.90;;;;;;;9.13;39.57;100589.81;1753940;80;21015;-87
2022/03/23 08:43:08;;;;;;;30.12;12.63;;;;;;;9.45;41.86;100586.48;1696147;83;21040;-90
2022/03/23 08:45:35;;;;;;;28.45;12.65;;;;;;;9.62;42.03;100580.05;1694768;85;21037;-94
2022/03/23 08:48:03;;;;;;;24.47;13.05;;;;;;;9.78;41.91;100583.11;1694700;83;21067;-87
2022/03/23 08:50:30;;;;;;;34.18;13.30;;;;;;;9.97;41.15;100581.42;1712843;82;21009;-84
2022/03/23 08:52:57;;;;;;;37.80;14.05;;;;;;;10.11;37.66;100566.70;1723281;81;21079;-86
2022/03/23 08:55:25;;;;;;;30.68;12.53;;;;;;;10.23;40.48;100569.74;1727081;82;20988;-85
2022/03/23 08:57:51;;;;;;;36.28;12.18;;;;;;;10.39;39.58;100565.44;1753444;79;20998;-86
2022/03/23 09:00:47;;;;;;;;;;;;;;;;;;;;;
2022/03/23 09:03:16;;;;;;;28.95;11.45;;;;;;;10.65;39.81;100559.34;1739330;82;21039;-87
2022/03/23 09:05:50;;;;;;;22.62;10.05;;;;;;;10.82;38.91;100556.68;1737255;81;21041;-87
2022/03/23 09:08:19;;;;;;;28.87;10.80;;;;;;;10.95;37.07;100550.58;1695982;83;21064;-83
2022/03/23 09:10:48;;;;;;;21.12;10.10;;;;;;;11.11;37.58;100547.03;1717958;82;20960;-85
2022/03/23 09:13:15;;;;;;;21.70;10.87;;;;;;;11.22;38.07;100551.33;1705551;80;21051;-91
2022/03/23 09:15:41;;;;;;;23.32;10.63;;;;;;;11.31;35.92;100540.44;1755645;81;21019;-91
2022/03/23 09:18:08;;;;;;;23.52;10.35;;;;;;;11.41;38.28;100539.95;1760269;81;21105;-87
2022/03/23 09:20:35;;;;;;;28.10;10.85;;;;;;;11.52;37.88;100540.77;1748623;80;22091;-87
2022/03/23 09:23:02;;;;;;;22.62;10.50;;;;;;;11.65;38.06;100525.91;1757516;81;21104;-86
2022/03/23 09:25:29;;;;;;;27.40;12.30;;;;;;;11.78;38.32;100525.83;1769173;80;21070;-85
2022/03/23 09:27:56;;;;;;;44.93;17.67;;;;;;;11.90;38.05;100520.14;1757273;82;21040;-86
2022/03/23 09:30:23;;;;;;;22.00;9.65;;;;;;;12.08;37.87;100511.30;1709026;79;21491;-83
2022/03/23 09:32:50;;;;;;;35.83;15.88;;;;;;;12.26;37.20;100512.02;1691918;83;21617;-81
2022/03/23 09:35:17;;;;;;;40.58;24.27;;;;;;;12.29;36.31;100501.55;1688140;84;21062;-85
2022/03/23 09:37:48;;;;;;;22.50;10.63;;;;;;;12.50;36.91;100508.30;1689041;85;21028;-86
2022/03/23 09:40:25;;;;;;;21.60;8.90;;;;;;;12.62;36.59;100502.95;1674600;83;21045;-86
2022/03/23 09:42:53;;;;;;;15.53;6.15;;;;;;;12.72;36.19;100499.80;1676050;85;21010;-88
2022/03/23 09:48:06;;;;;;;19.12;8.40;;;;;;;12.96;36.38;100488.20;1748637;80;21084;-86
2022/03/23 09:50:34;;;;;;;18.92;7.92;;;;;;;13.06;35.70;100487.19;1751809;81;20964;-82
2022/03/23 09:53:02;;;;;;;24.85;9.75;;;;;;;13.17;35.28;100484.87;1779015;78;21011;-85
2022/03/23 09:55:30;;;;;;;16.67;7.95;;;;;;;13.28;33.27;100476.46;1768851;80;20986;-85
2022/03/23 09:57:59;;;;;;;18.77;7.47;;;;;;;13.42;35.01;100481.52;1757554;82;21018;-82
2022/03/23 10:00:29;;;;;;;16.27;6.53;;;;;;;13.53;35.14;100479.17;1725071;83;20975;-84
2022/03/23 10:03:13;;;;;;;13.78;6.12;;;;;;;13.70;33.81;100478.03;1765751;80;21023;-84
2022/03/23 10:06:35;;;;;;;18.20;6.08;;;;;;;13.80;32.48;100474.38;1748150;81;20995;-84
2022/03/23 10:09:25;;;;;;;19.05;7.42;;;;;;;13.91;32.61;100472.47;1758682;81;21043;-84
2022/03/23 10:12:31;;;;;;;13.30;5.80;;;;;;;14.03;32.53;100470.09;1742651;81;21024;-81
2022/03/23 10:15:48;;;;;;;19.82;7.12;;;;;;;14.15;31.94;100462.92;1763145;81;20980;-80
2022/03/23 10:18:37;;;;;;;18.20;7.42;;;;;;;14.31;31.40;100455.21;1731720;81;21102;-83
2022/03/23 10:21:03;;;;;;;11.20;4.92;;;;;;;14.45;31.27;100447.95;1733992;82;21462;-83
2022/03/23 10:23:30;;;;;;;12.93;6.12;;;;;;;14.60;29.14;100454.66;1731794;82;20990;-83
2022/03/23 10:25:57;;;;;;;14.63;6.00;;;;;;;14.63;28.54;100451.99;1723990;80;21062;-85
2022/03/23 10:28:24;;;;;;;13.28;5.65;;;;;;;14.71;30.21;100443.98;1698602;78;21029;-89
2022/03/23 10:30:51;;;;;;;32.78;16.32;;;;;;;14.79;27.23;100442.53;1675592;82;21122;-84
2022/03/23 10:33:24;;;;;;;28.57;10.60;;;;;;;14.88;26.87;100440.58;1702101;81;21042;-90
2022/03/23 10:35:51;;;;;;;12.60;6.13;;;;;;;15.08;28.32;100420.50;1717588;83;21029;-86
2022/03/23 10:38:22;;;;;;;14.53;6.22;;;;;;;15.08;28.32;100420.50;1691562;84;21563;-85
2022/03/23 10:40:51;;;;;;;15.03;6.08;;;;;;;15.19;28.73;100424.17;1704743;83;21055;-85
2022/03/23 10:43:37;;;;;;;11.68;4.42;;;;;;;15.33;28.60;100409.90;1673983;83;21008;-84
2022/03/23 10:46:10;;;;;;;13.88;5.12;;;;;;;15.47;28.75;100410.42;1703571;84;21055;-84
2022/03/23 10:48:50;;;;;;;17.10;6.40;;;;;;;15.65;28.56;100409.96;1737969;81;21065;-85
2022/03/23 10:51:35;;;;;;;8.63;3.65;;;;;;;15.78;26.33;100400.08;1736623;81;21034;-81
2022/03/23 10:54:23;;;;;;;6.67;3.30;;;;;;;15.92;26.50;100402.34;1726805;81;21038;-82
2022/03/23 10:56:50;;;;;;;10.55;4.03;;;;;;;15.92;23.45;100394.47;1746815;82;20996;-86
2022/03/23 10:59:23;;;;;;;11.00;4.22;;;;;;;16.00;22.64;100387.26;1739077;81;21081;-85
2022/03/23 11:01:58;;;;;;;;;;;;;;;16.12;21.95;100390.00;1741823;81;21022;-84
2022/03/23 11:04:29;;;;;;;8.83;3.52;;;;;;;16.25;20.29;100387.89;1737830;82;20120;-83
2022/03/23 11:06:58;;;;;;;10.05;4.20;;;;;;;16.34;23.06;100381.54;1732573;81;21053;-81
2022/03/23 11:18:10;;;;;;;10.80;4.67;;;;;;;16.59;19.08;100360.67;1735653;81;20992;-83
2022/03/23 11:20:56;;;;;;;9.73;4.25;;;;;;;16.77;20.90;100364.08;1751876;81;21029;-84
2022/03/23 11:23:30;;;;;;;10.15;3.85;;;;;;;17.00;22.11;100362.07;1726849;81;21492;-83
2022/03/23 11:26:00;;;;;;;8.08;3.55;;;;;;;17.16;21.12;100349.30;1732780;81;21070;-85
2022/03/23 11:28:32;;;;;;;8.65;3.95;;;;;;;17.35;19.63;100349.58;1731873;81;21134;-85
2022/03/23 11:37:04;;;;;;;11.38;5.97;;;;;;;18.33;22.34;100336.09;1709448;80;21189;-84
2022/03/23 11:39:32;;;;;;;8.88;3.83;;;;;;;19.20;20.53;100333.16;1700103;83;21028;-83
2022/03/23 11:41:59;;;;;;;8.20;3.52;;;;;;;20.12;20.89;100323.56;1667559;83;21038;-82
2022/03/23 11:44:26;;;;;;;7.95;4.05;;;;;;;20.66;19.05;100318.84;1693257;84;21391;-82
2022/03/23 11:47:05;;;;;;;10.43;4.58;;;;;;;21.29;18.92;100323.31;1691364;83;21086;-84
2022/03/23 11:49:56;;;;;;;7.83;3.58;;;;;;;22.34;19.35;100314.38;1699341;83;20998;-83
2022/03/23 11:52:46;;;;;;;8.35;4.08;;;;;;;23.40;19.83;100298.25;1690549;83;20987;-84
2022/03/23 11:55:40;;;;;;;8.90;3.90;;;;;;;24.29;17.98;100302.14;1689563;84;21038;-85
2022/03/23 11:58:18;;;;;;;13.28;4.42;;;;;;;24.89;16.32;100297.44;1658928;86;21065;-85
2022/03/23 12:00:54;;;;;;;9.03;3.75;;;;;;;25.15;16.64;100303.72;1661378;85;21000;-86